createdAt,value
2022-08-17T00:00:16.575Z,1.85
2022-08-17T00:05:49.421Z,2.10
2022-08-17T00:10:52.899Z,1.90
2022-08-17T00:15:59.931Z,1.73
2022-08-17T00:21:04.361Z,3.03
2022-08-17T00:26:14.297Z,2.45
2022-08-17T00:31:17.171Z,2.60
2022-08-17T00:36:19.259Z,3.00
2022-08-17T00:41:24.018Z,4.10
2022-08-17T00:46:30.278Z,5.00
2022-08-17T00:51:41.195Z,4.30
2022-08-17T00:56:47.856Z,2.90
2022-08-17T01:01:51.046Z,2.50
2022-08-17T01:06:53.632Z,2.15
2022-08-17T01:11:55.483Z,1.98
2022-08-17T01:16:57.720Z,2.08
2022-08-17T01:22:11.693Z,1.83
2022-08-17T01:27:15.884Z,2.15
2022-08-17T01:32:20.612Z,1.98
2022-08-17T01:37:34.622Z,1.60
2022-08-17T01:42:42.298Z,2.40
2022-08-17T01:47:44.306Z,1.80
2022-08-17T01:52:51.675Z,1.80
2022-08-17T01:57:53.980Z,1.50
2022-08-17T02:02:56.045Z,1.75
2022-08-17T02:08:00.402Z,1.60
2022-08-17T02:13:04.736Z,1.70
2022-08-17T02:18:08.353Z,1.80
2022-08-17T02:23:13.103Z,1.80
2022-08-17T02:28:16.149Z,1.42
2022-08-17T02:33:18.159Z,1.70
2022-08-17T02:38:22.373Z,1.95
2022-08-17T02:43:25.530Z,1.63
2022-08-17T02:48:30.796Z,1.80
2022-08-17T02:53:36.197Z,1.83
2022-08-17T02:58:38.173Z,1.88
2022-08-17T03:03:40.535Z,1.58
2022-08-17T03:08:42.442Z,1.67
2022-08-17T03:13:44.886Z,1.50
2022-08-17T03:18:46.773Z,1.48
2022-08-17T03:23:48.686Z,1.60
2022-08-17T03:28:56.913Z,1.70
2022-08-17T03:34:05.288Z,2.17
2022-08-17T03:39:07.213Z,2.42
2022-08-17T03:44:09.196Z,2.72
2022-08-17T03:49:29.508Z,2.33
2022-08-17T03:54:49.820Z,2.03
2022-08-17T03:59:52.991Z,2.22
2022-08-17T04:04:56.829Z,2.15
2022-08-17T04:10:00.027Z,2.70
2022-08-17T04:15:01.856Z,2.53
2022-08-17T04:20:04.502Z,2.35
2022-08-17T04:25:15.253Z,2.05
2022-08-17T04:30:17.458Z,2.00
2022-08-17T04:35:22.029Z,2.47
2022-08-17T04:40:43.968Z,2.00
2022-08-17T04:45:54.939Z,2.00
2022-08-17T04:51:00.098Z,2.70
2022-08-17T04:56:02.382Z,3.05
2022-08-17T05:01:05.935Z,2.63
2022-08-17T05:06:09.183Z,2.60
2022-08-17T05:11:11.219Z,2.75
2022-08-17T05:16:13.231Z,2.03
2022-08-17T05:21:16.448Z,1.67
2022-08-17T05:26:25.670Z,1.88
2022-08-17T05:31:30.933Z,1.45
2022-08-17T05:36:42.576Z,1.67
2022-08-17T05:41:48.453Z,1.75
2022-08-17T05:46:54.291Z,1.63
2022-08-17T05:52:18.825Z,1.63
2022-08-17T05:57:47.488Z,1.75
2022-08-17T06:03:25.001Z,1.83
2022-08-17T06:08:40.257Z,1.30
2022-08-17T06:14:09.554Z,1.40
2022-08-17T06:19:21.785Z,1.40
2022-08-17T06:24:42.176Z,1.70
2022-08-17T06:30:02.288Z,1.25
2022-08-17T06:35:07.686Z,1.40
2022-08-17T06:40:22.267Z,1.45
2022-08-17T06:45:35.143Z,1.30
2022-08-17T06:50:44.254Z,1.70
2022-08-17T06:56:06.391Z,2.03
2022-08-17T07:01:13.210Z,2.00
2022-08-17T07:06:20.226Z,1.50
2022-08-17T07:11:48.949Z,1.80
2022-08-17T07:16:53.809Z,1.63
2022-08-17T07:22:14.217Z,1.67
2022-08-17T07:27:31.323Z,1.52
2022-08-17T07:32:49.079Z,1.70
2022-08-17T07:38:26.154Z,1.65
2022-08-17T07:43:53.160Z,1.50
2022-08-17T07:49:16.134Z,1.83
2022-08-17T07:54:36.845Z,2.05
2022-08-17T08:00:04.104Z,2.13
2022-08-17T08:05:46.680Z,1.88
2022-08-17T08:11:09.862Z,1.48
2022-08-17T08:16:32.145Z,1.63
2022-08-17T08:22:00.405Z,1.85
2022-08-17T08:27:27.284Z,2.10
2022-08-17T08:32:50.225Z,1.60
2022-08-17T08:37:59.942Z,1.85
2022-08-17T08:43:29.698Z,1.80
2022-08-17T08:48:53.187Z,1.63
2022-08-17T08:54:26.873Z,1.85
2022-08-17T08:59:41.844Z,1.58
2022-08-17T09:05:15.068Z,1.52
2022-08-17T09:10:30.248Z,1.70
2022-08-17T09:15:45.308Z,1.60
2022-08-17T09:20:55.734Z,1.73
2022-08-17T09:26:16.396Z,2.22
2022-08-17T09:31:24.108Z,1.88
2022-08-17T09:36:33.124Z,1.60
2022-08-17T09:41:52.940Z,1.65
2022-08-17T09:47:05.816Z,1.88
2022-08-17T09:52:18.172Z,1.67
2022-08-17T09:57:32.384Z,1.63
2022-08-17T10:03:05.723Z,1.38
2022-08-17T10:08:10.365Z,1.38
2022-08-17T10:13:12.087Z,1.60
2022-08-17T10:18:33.263Z,1.60
2022-08-17T10:23:54.179Z,1.73
2022-08-17T10:28:58.776Z,1.40
2022-08-17T10:34:25.318Z,1.73
2022-08-17T10:40:04.008Z,1.43
2022-08-17T10:45:26.343Z,1.20
2022-08-17T10:50:49.868Z,1.35
2022-08-17T10:56:11.806Z,1.92
2022-08-17T11:01:13.865Z,1.35
2022-08-17T11:06:25.578Z,1.52
2022-08-17T11:11:50.374Z,1.63
2022-08-17T11:17:26.097Z,1.50
2022-08-17T11:23:01.378Z,1.23
2022-08-17T11:28:52.547Z,1.00
2022-08-17T11:34:08.316Z,1.33
2022-08-17T11:39:30.786Z,1.50
2022-08-17T11:44:38.194Z,1.38
2022-08-17T11:50:27.584Z,1.38
2022-08-17T11:55:39.565Z,1.17
2022-08-17T12:00:46.547Z,1.30
2022-08-17T12:05:50.157Z,1.58
2022-08-17T12:10:59.776Z,1.60
2022-08-17T12:16:02.661Z,1.50
2022-08-17T12:21:34.827Z,1.08
2022-08-17T12:26:37.330Z,1.60
2022-08-17T12:31:49.101Z,1.40
2022-08-17T12:37:06.934Z,1.52
2022-08-17T12:42:26.886Z,1.23
2022-08-17T12:47:32.029Z,1.20
2022-08-17T12:52:39.682Z,1.30
2022-08-17T12:57:47.971Z,1.65
2022-08-17T13:02:52.333Z,1.15
2022-08-17T13:07:56.267Z,1.40
2022-08-17T13:13:04.020Z,1.42
2022-08-17T13:18:29.752Z,1.67
2022-08-17T13:23:32.547Z,1.25
2022-08-17T13:28:37.694Z,0.98
2022-08-17T13:33:44.815Z,1.95
2022-08-17T13:38:50.514Z,1.35
2022-08-17T13:43:53.075Z,1.45
2022-08-17T13:49:05.958Z,1.63
2022-08-17T13:54:30.765Z,1.48
2022-08-17T13:59:52.512Z,1.10
2022-08-17T14:04:54.993Z,1.35
2022-08-17T14:10:05.861Z,1.10
2022-08-17T14:15:09.001Z,1.10
2022-08-17T14:20:13.560Z,1.10
2022-08-17T14:25:23.850Z,1.30
2022-08-17T14:30:28.933Z,1.50
2022-08-17T14:35:32.496Z,1.00
2022-08-17T14:40:35.555Z,1.15
2022-08-17T14:45:37.634Z,1.60
2022-08-17T14:50:42.140Z,1.40
2022-08-17T14:55:47.124Z,1.25
2022-08-17T15:00:51.454Z,1.42
2022-08-17T15:05:54.014Z,1.33
2022-08-17T15:10:56.086Z,1.15
2022-08-17T15:16:00.317Z,1.10
2022-08-17T15:21:07.613Z,1.30
2022-08-17T15:26:09.633Z,1.50
2022-08-17T15:31:11.615Z,1.10
2022-08-17T15:36:13.696Z,2.03
2022-08-17T15:41:18.648Z,1.48
2022-08-17T15:46:23.874Z,1.70
2022-08-17T15:51:32.703Z,1.25
2022-08-17T15:56:34.774Z,1.27
2022-08-17T16:03:01.315Z,1.73
2022-08-17T16:07:00.230Z,1.40
2022-08-17T16:12:13.397Z,1.20
2022-08-17T16:17:39.549Z,1.55
2022-08-17T16:22:43.739Z,1.40
2022-08-17T16:27:48.538Z,1.30
2022-08-17T16:32:53.253Z,1.23
2022-08-17T16:37:59.011Z,1.30
2022-08-17T16:43:01.787Z,1.35
2022-08-17T16:48:04.563Z,1.38
2022-08-17T16:53:17.730Z,1.17
2022-08-17T16:58:20.163Z,1.30
2022-08-17T17:03:26.401Z,1.10
2022-08-17T17:08:44.698Z,1.05
2022-08-17T17:13:58.009Z,1.58
2022-08-17T17:19:09.211Z,1.52
2022-08-17T17:24:28.915Z,1.50
2022-08-17T17:29:47.710Z,1.40
2022-08-17T17:34:56.412Z,1.80
2022-08-17T17:40:05.487Z,1.25
2022-08-17T17:45:12.686Z,1.40
2022-08-17T17:50:18.061Z,1.83
2022-08-17T17:55:25.910Z,1.45
2022-08-17T18:00:49.704Z,1.10
2022-08-17T18:06:45.997Z,1.40
2022-08-17T18:12:06.966Z,1.50
2022-08-17T18:17:09.235Z,1.50
2022-08-17T18:22:15.863Z,1.88
2022-08-17T18:27:32.976Z,1.60
2022-08-17T18:32:36.489Z,1.48
2022-08-17T18:37:46.664Z,1.60
2022-08-17T18:43:00.677Z,1.33
2022-08-17T18:48:03.603Z,1.90
2022-08-17T18:53:38.697Z,1.48
2022-08-17T18:58:40.868Z,1.80
2022-08-17T19:03:46.196Z,1.70
2022-08-17T19:08:48.147Z,1.40
2022-08-17T19:13:55.611Z,2.20
2022-08-17T19:19:16.362Z,1.67
2022-08-17T19:24:21.817Z,1.85
2022-08-17T19:29:36.061Z,1.40
2022-08-17T19:34:44.785Z,1.73
2022-08-17T19:39:55.779Z,1.60
2022-08-17T19:45:09.786Z,1.20
2022-08-17T19:50:16.563Z,1.52
2022-08-17T19:55:33.769Z,1.50
2022-08-17T20:00:47.317Z,1.83
2022-08-17T20:06:12.679Z,1.77
2022-08-17T20:11:21.465Z,1.60
2022-08-17T20:16:24.850Z,2.10
2022-08-17T20:21:41.776Z,1.60
2022-08-17T20:27:08.573Z,1.30
2022-08-17T20:32:23.510Z,1.50
2022-08-17T20:37:30.654Z,1.30
2022-08-17T20:48:00.777Z,1.33
2022-08-17T20:53:09.757Z,1.40
2022-08-17T20:58:30.003Z,1.45
2022-08-17T21:03:49.216Z,1.27
2022-08-17T21:09:12.772Z,1.60
2022-08-17T21:14:41.965Z,1.55
2022-08-17T21:20:24.033Z,1.45
2022-08-17T21:25:56.293Z,1.50
2022-08-17T21:31:09.190Z,1.63
2022-08-17T21:36:17.392Z,1.48
2022-08-17T21:41:33.971Z,1.70
2022-08-17T21:46:39.709Z,1.77
2022-08-17T21:51:46.277Z,1.88
2022-08-17T21:56:49.097Z,1.70
2022-08-17T22:01:56.377Z,1.83
2022-08-17T22:07:05.314Z,1.92
2022-08-17T22:12:15.512Z,1.65
2022-08-17T22:17:26.713Z,1.70
2022-08-17T22:23:09.063Z,1.70
2022-08-17T22:28:12.426Z,2.03
2022-08-17T22:33:33.346Z,1.60
2022-08-17T22:38:35.689Z,1.55
2022-08-17T22:43:39.112Z,1.80
2022-08-17T22:48:53.788Z,1.45
2022-08-17T22:54:18.832Z,1.60
2022-08-17T23:00:02.709Z,1.90
2022-08-17T23:05:10.958Z,2.20
2022-08-17T23:10:14.082Z,1.60
2022-08-17T23:15:19.212Z,1.85
2022-08-17T23:20:21.059Z,2.28
2022-08-17T23:25:31.546Z,2.03
2022-08-17T23:30:42.924Z,1.63
2022-08-17T23:35:45.450Z,1.95
2022-08-17T23:40:47.263Z,1.92
2022-08-17T23:45:49.058Z,2.10
2022-08-17T23:50:53.010Z,1.40
2022-08-17T23:56:07.584Z,2.13
